National Weather Service Raw Text Product

Displaying AFOS PIL: TAFFOD Received: 2018-12-06 17:10 UTC


810 
FTUS43 KDMX 061710 AAA
TAFFOD
TAF AMD
KFOD 061710Z 0617/0712 34008KT P6SM SCT019
      TEMPO 0617/0619 BKN019
     FM070300 VRB03KT P6SM FEW250=